createdAt,value
2023-03-21T00:00:14.937Z,55.43
2023-03-21T00:01:12.915Z,63.00
2023-03-21T00:02:12.986Z,61.39
2023-03-21T00:03:12.933Z,49.95
2023-03-21T00:04:12.939Z,53.01
2023-03-21T00:05:15.889Z,66.06
2023-03-21T00:06:13.872Z,60.26
2023-03-21T00:07:12.875Z,81.37
2023-03-21T00:08:12.877Z,58.49
2023-03-21T00:09:12.870Z,66.39
2023-03-21T00:10:18.024Z,55.27
2023-03-21T00:11:14.823Z,71.87
2023-03-21T00:12:12.834Z,66.71
2023-03-21T00:13:15.434Z,60.26
2023-03-21T00:14:12.828Z,66.23
2023-03-21T00:15:12.820Z,58.65
2023-03-21T00:16:16.319Z,60.10
2023-03-21T00:17:14.512Z,54.30
2023-03-21T00:18:12.784Z,67.19
2023-03-21T00:19:13.496Z,65.10
2023-03-21T00:20:12.791Z,61.39
2023-03-21T00:22:14.752Z,62.04
2023-03-21T00:25:02.213Z,54.62
2023-03-21T00:26:03.273Z,57.36
2023-03-21T00:27:29.872Z,67.35
2023-03-21T00:28:08.622Z,60.42
2023-03-21T00:29:04.258Z,64.13
2023-03-21T00:30:03.216Z,55.11
2023-03-21T00:31:03.233Z,43.67
2023-03-21T00:32:04.054Z,66.71
2023-03-21T00:33:15.829Z,66.71
2023-03-21T00:34:05.197Z,67.19
2023-03-21T00:35:34.460Z,63.16
2023-03-21T00:36:06.452Z,60.75
2023-03-21T00:37:04.180Z,65.58
2023-03-21T00:38:03.170Z,61.23
2023-03-21T00:39:04.031Z,61.87
2023-03-21T00:40:06.997Z,62.68
2023-03-21T00:41:10.921Z,64.13
2023-03-21T00:42:05.137Z,48.66
2023-03-21T00:43:03.120Z,62.20
2023-03-21T00:44:03.615Z,59.30
2023-03-21T00:45:03.097Z,58.81
2023-03-21T00:46:03.090Z,60.26
2023-03-21T00:47:07.592Z,50.43
2023-03-21T00:48:05.201Z,53.98
2023-03-21T00:49:03.086Z,52.05
2023-03-21T00:50:03.056Z,69.45
2023-03-21T00:51:03.068Z,61.55
2023-03-21T00:52:15.150Z,67.84
2023-03-21T00:53:05.076Z,68.00
2023-03-21T00:54:03.039Z,64.29
2023-03-21T00:55:03.018Z,58.81
2023-03-21T00:56:03.016Z,56.40
2023-03-21T00:57:03.004Z,67.68
2023-03-21T00:58:03.006Z,64.13
2023-03-21T00:59:02.986Z,43.67
2023-03-21T01:00:02.998Z,54.14
2023-03-21T01:01:02.988Z,62.68
2023-03-21T01:02:03.003Z,57.52
2023-03-21T01:03:14.317Z,59.46
2023-03-21T01:04:04.948Z,67.19
2023-03-21T01:05:02.938Z,57.52
2023-03-21T01:06:02.938Z,64.45
2023-03-21T01:07:02.939Z,60.10
2023-03-21T01:08:05.993Z,46.08
2023-03-21T01:09:04.910Z,65.42
2023-03-21T01:10:03.022Z,63.65
2023-03-21T01:11:02.897Z,53.01
2023-03-21T01:12:02.894Z,42.70
2023-03-21T01:13:02.882Z,60.26
2023-03-21T01:14:18.635Z,58.01
2023-03-21T01:15:04.853Z,61.71
2023-03-21T01:16:02.879Z,45.76
2023-03-21T01:17:02.843Z,66.06
2023-03-21T01:18:02.849Z,61.87
2023-03-21T01:19:05.230Z,45.44
2023-03-21T01:20:02.818Z,52.69
2023-03-21T01:21:02.833Z,67.68
2023-03-21T01:22:02.805Z,70.74
2023-03-21T01:23:02.806Z,52.85
2023-03-21T01:24:02.788Z,44.47
2023-03-21T01:25:19.299Z,53.50
2023-03-21T01:26:04.804Z,56.07
2023-03-21T01:27:02.751Z,61.39
2023-03-21T01:28:02.760Z,65.90
2023-03-21T01:29:02.756Z,65.58
2023-03-21T01:30:06.232Z,65.90
2023-03-21T01:31:03.736Z,55.43
2023-03-21T01:32:02.729Z,61.71
2023-03-21T01:33:02.719Z,59.62
2023-03-21T01:34:02.714Z,65.74
2023-03-21T01:35:02.702Z,62.36
2023-03-21T01:36:12.245Z,63.00
2023-03-21T01:37:04.698Z,64.78
2023-03-21T01:38:02.698Z,50.27
2023-03-21T01:39:02.688Z,61.71
2023-03-21T01:40:02.660Z,60.10
2023-03-21T01:41:08.582Z,65.90
2023-03-21T01:42:04.647Z,50.11
2023-03-21T01:43:02.660Z,60.42
2023-03-21T01:44:02.656Z,62.20
2023-03-21T01:45:02.643Z,59.62
2023-03-21T01:46:02.656Z,43.02
2023-03-21T01:47:11.833Z,62.68
2023-03-21T01:48:04.618Z,60.91
2023-03-21T01:49:02.603Z,63.97
2023-03-21T01:50:02.585Z,60.42
2023-03-21T01:51:02.579Z,62.68
2023-03-21T01:52:11.867Z,64.29
2023-03-21T01:53:04.550Z,42.70
2023-03-21T01:54:02.557Z,62.04
2023-03-21T01:55:02.544Z,66.39
2023-03-21T01:56:02.560Z,72.35
2023-03-21T01:57:02.532Z,53.01
2023-03-21T01:58:06.341Z,62.84
2023-03-21T01:59:03.516Z,57.52
2023-03-21T02:00:02.502Z,63.65
2023-03-21T02:01:02.546Z,59.62
2023-03-21T02:02:02.488Z,62.68
2023-03-21T02:03:11.550Z,60.10
2023-03-21T02:04:04.501Z,59.30
2023-03-21T02:05:02.465Z,61.55
2023-03-21T02:06:02.726Z,68.64
2023-03-21T02:07:02.441Z,58.97
2023-03-21T02:08:02.445Z,59.46
2023-03-21T02:09:02.431Z,62.04
2023-03-21T02:10:02.424Z,59.62
2023-03-21T02:11:02.424Z,61.55
2023-03-21T02:12:02.416Z,56.24
2023-03-21T02:13:02.410Z,64.61
2023-03-21T02:14:06.713Z,63.16
2023-03-21T02:15:04.391Z,65.90
2023-03-21T02:16:02.389Z,63.97
2023-03-21T02:17:02.398Z,64.61
2023-03-21T02:18:02.356Z,60.10
2023-03-21T02:19:02.364Z,64.78
2023-03-21T02:20:02.357Z,64.94
2023-03-21T02:21:02.356Z,61.71
2023-03-21T02:22:02.328Z,62.36
2023-03-21T02:23:02.332Z,62.20
2023-03-21T02:24:02.321Z,52.37
2023-03-21T02:25:06.209Z,46.08
2023-03-21T02:26:05.134Z,66.39
2023-03-21T02:27:04.219Z,55.43
2023-03-21T02:28:03.297Z,48.18
2023-03-21T02:29:02.296Z,60.59
2023-03-21T02:30:02.280Z,57.52
2023-03-21T02:31:02.352Z,58.97
2023-03-21T02:32:15.147Z,59.14
2023-03-21T02:33:04.252Z,59.46
2023-03-21T02:34:02.285Z,63.65
2023-03-21T02:35:02.236Z,46.89
2023-03-21T02:36:12.029Z,58.65
2023-03-21T02:37:04.221Z,61.87
2023-03-21T02:38:02.207Z,65.74
2023-03-21T02:39:02.206Z,58.81
2023-03-21T02:40:02.194Z,66.71
2023-03-21T02:41:05.322Z,58.97
2023-03-21T02:42:03.172Z,53.66
2023-03-21T02:43:02.285Z,54.62
2023-03-21T02:44:02.162Z,49.95
2023-03-21T02:45:02.164Z,62.84
2023-03-21T02:46:02.175Z,73.48
2023-03-21T02:47:06.370Z,46.08
2023-03-21T02:48:04.062Z,44.63
2023-03-21T02:49:02.154Z,43.51
2023-03-21T02:50:02.138Z,59.46
2023-03-21T02:51:02.106Z,45.92
2023-03-21T02:52:12.213Z,45.44
2023-03-21T02:53:04.094Z,44.15
2023-03-21T02:54:26.438Z,67.35
2023-03-21T02:55:04.085Z,62.52
2023-03-21T02:56:02.088Z,59.14
2023-03-21T02:57:02.075Z,61.23
2023-03-21T02:58:12.377Z,62.04
2023-03-21T02:59:04.069Z,58.33
2023-03-21T03:00:15.562Z,58.65
2023-03-21T03:01:04.107Z,52.69
2023-03-21T03:02:02.557Z,44.63
2023-03-21T03:03:09.738Z,59.46
2023-03-21T03:04:04.064Z,62.68
2023-03-21T03:05:06.515Z,57.20
2023-03-21T03:06:03.022Z,57.85
2023-03-21T03:07:01.987Z,57.04
2023-03-21T03:08:01.974Z,56.40
2023-03-21T03:09:03.164Z,58.01
2023-03-21T03:10:02.971Z,60.42
2023-03-21T03:11:02.654Z,56.07
2023-03-21T03:12:01.934Z,52.69
2023-03-21T03:13:01.946Z,62.20
2023-03-21T03:14:15.570Z,65.74
2023-03-21T03:15:04.510Z,59.30
2023-03-21T03:16:02.972Z,62.84
2023-03-21T03:17:01.915Z,67.03
2023-03-21T03:18:01.918Z,54.62
2023-03-21T03:19:01.880Z,61.71
2023-03-21T03:20:15.185Z,58.65
2023-03-21T03:21:03.879Z,60.42
2023-03-21T03:22:01.885Z,57.52
2023-03-21T03:23:01.871Z,46.08
2023-03-21T03:24:01.858Z,56.40
2023-03-21T03:25:09.638Z,45.60
2023-03-21T03:26:03.841Z,59.78
2023-03-21T03:27:01.826Z,45.60
2023-03-21T03:28:01.831Z,45.92
2023-03-21T03:29:01.816Z,57.20
2023-03-21T03:30:01.787Z,56.88
2023-03-21T03:31:09.200Z,62.52
2023-03-21T03:32:03.888Z,65.58
2023-03-21T03:33:01.780Z,62.84
2023-03-21T03:34:01.770Z,65.10
2023-03-21T03:35:01.775Z,62.68
2023-03-21T03:36:06.598Z,68.80
2023-03-21T03:37:03.765Z,65.90
2023-03-21T03:38:01.736Z,62.36
2023-03-21T03:39:01.739Z,66.71
2023-03-21T03:40:01.721Z,66.87
2023-03-21T03:41:01.714Z,66.39
2023-03-21T03:42:12.622Z,62.04
2023-03-21T03:43:03.708Z,61.87
2023-03-21T03:44:02.583Z,62.04
2023-03-21T03:45:01.676Z,63.00
2023-03-21T03:46:01.666Z,62.52
2023-03-21T03:47:01.664Z,63.00
2023-03-21T03:48:01.721Z,63.00
2023-03-21T03:49:02.636Z,61.39
2023-03-21T03:50:01.666Z,61.39
2023-03-21T03:51:01.632Z,61.87
2023-03-21T03:52:01.616Z,60.26
2023-03-21T03:53:07.162Z,62.84
2023-03-21T03:54:03.602Z,63.65
2023-03-21T03:55:01.605Z,63.16
2023-03-21T03:56:01.593Z,62.20
2023-03-21T03:57:01.585Z,64.94
2023-03-21T03:58:03.201Z,67.35
2023-03-21T03:59:01.558Z,69.45
2023-03-21T04:00:01.563Z,64.45
2023-03-21T04:01:01.550Z,61.55
2023-03-21T04:02:01.579Z,66.39
2023-03-21T04:03:01.790Z,66.23
2023-03-21T04:04:12.628Z,67.35
2023-03-21T04:05:03.524Z,62.68
2023-03-21T04:06:01.538Z,62.52
2023-03-21T04:07:01.507Z,67.68
2023-03-21T04:08:01.495Z,62.20
2023-03-21T04:09:03.444Z,66.87
2023-03-21T04:10:02.498Z,63.81
2023-03-21T04:11:01.495Z,68.48
2023-03-21T04:12:01.474Z,65.74
2023-03-21T04:13:01.463Z,70.42
2023-03-21T04:14:01.450Z,64.29
2023-03-21T04:15:10.013Z,73.64
2023-03-21T04:16:03.488Z,61.55
2023-03-21T04:17:01.440Z,64.29
2023-03-21T04:18:01.432Z,69.13
2023-03-21T04:19:01.413Z,68.96
2023-03-21T04:20:11.613Z,67.03
2023-03-21T04:21:03.450Z,70.90
2023-03-21T04:22:01.404Z,69.77
2023-03-21T04:23:01.376Z,68.00
2023-03-21T04:24:01.413Z,64.94
2023-03-21T04:25:01.399Z,65.58
2023-03-21T04:26:01.356Z,68.00
2023-03-21T04:27:02.087Z,63.33
2023-03-21T04:28:01.344Z,62.36
2023-03-21T04:29:01.345Z,63.49
2023-03-21T04:30:01.356Z,66.06
2023-03-21T04:31:08.774Z,62.20
2023-03-21T04:32:03.336Z,63.49
2023-03-21T04:33:01.352Z,62.04
2023-03-21T04:34:01.289Z,67.68
2023-03-21T04:35:01.303Z,64.13
2023-03-21T04:36:01.378Z,71.70
2023-03-21T04:37:02.286Z,65.90
2023-03-21T04:38:01.270Z,70.74
2023-03-21T04:39:01.255Z,68.80
2023-03-21T04:40:01.250Z,75.41
2023-03-21T04:41:01.256Z,63.81
2023-03-21T04:42:01.234Z,63.65
2023-03-21T04:43:01.232Z,62.36
2023-03-21T04:44:01.206Z,64.45
2023-03-21T04:45:01.210Z,63.16
2023-03-21T04:46:02.206Z,62.68
2023-03-21T04:47:01.194Z,65.90
2023-03-21T04:48:01.209Z,66.71
2023-03-21T04:49:01.180Z,63.16
2023-03-21T04:50:01.170Z,75.41
2023-03-21T04:51:01.162Z,67.03
2023-03-21T04:52:01.160Z,70.90
2023-03-21T04:53:01.157Z,66.06
2023-03-21T04:54:01.158Z,67.35
2023-03-21T04:55:01.143Z,79.44
2023-03-21T04:56:01.150Z,69.61
2023-03-21T04:57:01.120Z,67.68
2023-03-21T04:58:01.110Z,66.39
2023-03-21T04:59:01.106Z,70.90
2023-03-21T05:00:01.104Z,68.48
2023-03-21T05:01:01.105Z,69.93
2023-03-21T05:02:01.124Z,65.58
2023-03-21T05:03:01.091Z,64.45
2023-03-21T05:04:01.080Z,68.00
2023-03-21T05:05:01.053Z,68.48
2023-03-21T05:06:01.037Z,63.16
2023-03-21T05:07:01.034Z,63.97
2023-03-21T05:08:01.044Z,65.10
2023-03-21T05:09:01.033Z,68.00
2023-03-21T05:10:02.541Z,68.48
2023-03-21T05:11:02.009Z,68.96
2023-03-21T05:12:00.998Z,64.78
2023-03-21T05:13:00.990Z,63.16
2023-03-21T05:14:00.981Z,64.94
2023-03-21T05:15:00.960Z,62.68
2023-03-21T05:16:00.971Z,68.80
2023-03-21T05:17:01.004Z,65.10
2023-03-21T05:18:00.940Z,66.55
2023-03-21T05:19:00.935Z,68.16
2023-03-21T05:20:00.949Z,68.64
2023-03-21T05:21:00.930Z,72.67
2023-03-21T05:22:01.701Z,68.48
2023-03-21T05:23:00.907Z,69.13
2023-03-21T05:24:00.902Z,70.42
2023-03-21T05:25:00.903Z,65.74
2023-03-21T05:26:00.938Z,70.25
2023-03-21T05:27:01.658Z,68.00
2023-03-21T05:28:01.887Z,66.39
2023-03-21T05:29:00.866Z,65.90
2023-03-21T05:30:00.882Z,70.25
2023-03-21T05:31:00.909Z,68.48
2023-03-21T05:32:00.848Z,69.61
2023-03-21T05:33:00.859Z,67.35
2023-03-21T05:34:00.848Z,69.93
2023-03-21T05:35:01.604Z,70.90
2023-03-21T05:36:00.827Z,73.80
2023-03-21T05:37:00.823Z,69.93
2023-03-21T05:38:00.807Z,70.90
2023-03-21T05:39:00.801Z,66.23
2023-03-21T05:40:00.779Z,66.39
2023-03-21T05:41:00.778Z,67.84
2023-03-21T05:42:00.767Z,66.06
2023-03-21T05:43:00.772Z,67.19
2023-03-21T05:44:00.755Z,68.80
2023-03-21T05:45:00.739Z,66.71
2023-03-21T05:46:00.771Z,68.00
2023-03-21T05:47:00.734Z,67.51
2023-03-21T05:48:00.778Z,67.35
2023-03-21T05:49:00.713Z,66.39
2023-03-21T05:50:00.698Z,74.44
2023-03-21T05:51:00.708Z,72.51
2023-03-21T05:52:00.710Z,73.48
2023-03-21T05:53:00.690Z,65.58
2023-03-21T05:54:00.690Z,67.35
2023-03-21T05:55:01.670Z,71.70
2023-03-21T05:56:00.682Z,69.93
2023-03-21T05:57:00.662Z,69.93
2023-03-21T05:58:00.712Z,67.51
2023-03-21T05:59:00.654Z,66.06
2023-03-21T06:00:00.652Z,68.48
2023-03-21T06:01:00.624Z,69.93
2023-03-21T06:02:00.637Z,71.38
2023-03-21T06:03:00.650Z,67.19
2023-03-21T06:04:00.663Z,77.18
2023-03-21T06:05:00.594Z,70.25
2023-03-21T06:06:02.205Z,70.58
2023-03-21T06:07:00.574Z,68.80
2023-03-21T06:08:00.569Z,71.38
2023-03-21T06:09:00.562Z,68.48
2023-03-21T06:10:00.561Z,73.80
2023-03-21T06:11:00.558Z,71.70
2023-03-21T06:12:00.532Z,69.45
2023-03-21T06:13:00.540Z,71.87
2023-03-21T06:14:00.516Z,68.64
2023-03-21T06:15:00.512Z,68.48
2023-03-21T06:16:00.592Z,70.74
2023-03-21T06:17:00.505Z,69.61
2023-03-21T06:18:00.495Z,70.74
2023-03-21T06:19:00.474Z,72.67
2023-03-21T06:20:00.509Z,74.44
2023-03-21T06:21:00.463Z,74.60
2023-03-21T06:22:00.459Z,73.15
2023-03-21T06:23:00.446Z,69.29
2023-03-21T06:24:00.448Z,70.25
2023-03-21T06:25:00.430Z,77.34
2023-03-21T06:26:00.458Z,76.86
2023-03-21T06:27:02.820Z,77.18
2023-03-21T06:28:01.108Z,72.99
2023-03-21T06:29:00.398Z,74.77
2023-03-21T06:30:00.406Z,71.22
2023-03-21T06:31:00.451Z,71.06
2023-03-21T06:32:01.111Z,69.93
2023-03-21T06:33:01.124Z,70.25
2023-03-21T06:34:00.359Z,72.03
2023-03-21T06:35:00.369Z,70.74
2023-03-21T06:36:00.380Z,71.38
2023-03-21T06:37:00.354Z,71.70
2023-03-21T06:38:00.326Z,71.38
2023-03-21T06:39:00.309Z,76.54
2023-03-21T06:40:00.314Z,72.35
2023-03-21T06:41:00.300Z,71.54
2023-03-21T06:42:00.342Z,69.61
2023-03-21T06:43:00.292Z,68.00
2023-03-21T06:44:00.322Z,69.13
2023-03-21T06:45:00.277Z,71.06
2023-03-21T06:46:01.112Z,71.54
2023-03-21T06:47:00.311Z,69.77
2023-03-21T06:48:00.316Z,68.48
2023-03-21T06:49:00.263Z,70.42
2023-03-21T06:50:00.390Z,68.48
2023-03-21T06:51:00.271Z,68.00
2023-03-21T06:52:00.248Z,69.13
2023-03-21T06:53:00.208Z,68.16
2023-03-21T06:54:00.207Z,72.19
2023-03-21T06:55:00.209Z,75.89
2023-03-21T06:56:00.727Z,71.22
2023-03-21T06:57:00.200Z,68.48
2023-03-21T06:58:00.210Z,70.42
2023-03-21T06:59:00.182Z,69.61
2023-03-21T07:00:00.184Z,69.77
2023-03-21T07:01:00.403Z,68.32
2023-03-21T07:02:00.170Z,69.61
2023-03-21T07:03:00.224Z,75.57
2023-03-21T07:04:01.087Z,75.41
2023-03-21T07:05:00.180Z,68.00
2023-03-21T07:06:00.142Z,69.29
2023-03-21T07:07:00.628Z,70.58
2023-03-21T07:08:00.119Z,76.54
2023-03-21T07:09:00.122Z,71.70
2023-03-21T07:10:00.140Z,72.35
2023-03-21T07:11:00.740Z,67.51
2023-03-21T07:12:00.124Z,68.00
2023-03-21T07:13:00.071Z,68.00
2023-03-21T07:14:00.099Z,68.96
2023-03-21T07:15:00.092Z,74.12
2023-03-21T07:16:00.066Z,72.03
2023-03-21T07:17:00.260Z,68.96
2023-03-21T07:18:00.099Z,73.64
2023-03-21T07:19:00.038Z,69.29
2023-03-21T07:20:00.086Z,70.90
2023-03-21T07:21:00.011Z,77.99
2023-03-21T07:22:00.023Z,72.51
2023-03-21T07:22:59.994Z,66.39
2023-03-21T07:23:59.971Z,70.09
2023-03-21T07:25:05.250Z,66.06
2023-03-21T07:26:01.973Z,70.09
2023-03-21T07:26:59.953Z,64.78
2023-03-21T07:28:01.179Z,70.25
2023-03-21T07:28:59.939Z,74.44
2023-03-21T07:29:59.996Z,70.90
2023-03-21T07:30:59.976Z,69.61
2023-03-21T07:32:01.791Z,69.77
2023-03-21T07:33:00.652Z,69.45
2023-03-21T07:33:59.899Z,68.48
2023-03-21T07:35:01.795Z,73.80
2023-03-21T07:36:00.929Z,95.39
2023-03-21T07:36:59.872Z,70.90
2023-03-21T07:37:59.867Z,74.60
2023-03-21T07:38:59.907Z,73.32
2023-03-21T07:40:00.749Z,69.13
2023-03-21T07:40:59.872Z,69.29
2023-03-21T07:42:00.718Z,70.09
2023-03-21T07:43:00.158Z,70.74
2023-03-21T07:43:59.810Z,68.48
2023-03-21T07:44:59.831Z,67.03
2023-03-21T07:46:00.762Z,68.64
2023-03-21T07:46:59.829Z,66.39
2023-03-21T07:47:59.854Z,67.68
2023-03-21T07:48:59.779Z,68.32
2023-03-21T07:49:59.774Z,67.68
2023-03-21T07:50:59.753Z,71.22
2023-03-21T07:52:01.509Z,73.32
2023-03-21T07:52:59.746Z,69.45
2023-03-21T07:54:00.635Z,68.80
2023-03-21T07:54:59.718Z,69.77
2023-03-21T07:56:00.275Z,70.74
2023-03-21T07:56:59.759Z,71.22
2023-03-21T07:58:00.645Z,69.45
2023-03-21T07:58:59.698Z,68.00
2023-03-21T07:59:59.775Z,66.71
2023-03-21T08:01:00.765Z,70.25
2023-03-21T08:01:59.781Z,72.03
2023-03-21T08:02:59.870Z,69.61
2023-03-21T08:03:59.823Z,74.12
2023-03-21T08:04:59.666Z,68.16
2023-03-21T08:05:59.630Z,76.05
2023-03-21T08:07:00.195Z,69.45
2023-03-21T08:07:59.696Z,69.13
2023-03-21T08:08:59.631Z,71.22
2023-03-21T08:09:59.657Z,69.29
2023-03-21T08:10:59.620Z,67.35
2023-03-21T08:12:00.176Z,68.00
2023-03-21T08:13:00.161Z,68.80
2023-03-21T08:14:00.140Z,70.25
2023-03-21T08:15:01.300Z,69.93
2023-03-21T08:16:00.574Z,70.74
2023-03-21T08:16:59.581Z,65.10
2023-03-21T08:17:59.700Z,68.00
2023-03-21T08:18:59.548Z,73.32
2023-03-21T08:20:02.369Z,69.13
2023-03-21T08:20:59.562Z,71.54
2023-03-21T08:21:59.554Z,70.58
2023-03-21T08:22:59.553Z,72.51
2023-03-21T08:23:59.478Z,71.22
2023-03-21T08:25:01.165Z,73.15
2023-03-21T08:25:59.509Z,77.99
2023-03-21T08:26:59.490Z,71.06
2023-03-21T08:27:59.474Z,69.29
2023-03-21T08:29:00.267Z,71.70
2023-03-21T08:29:59.460Z,70.09
2023-03-21T08:30:59.553Z,68.64
2023-03-21T08:31:59.469Z,67.51
2023-03-21T08:33:01.453Z,69.77
2023-03-21T08:34:00.431Z,67.35
2023-03-21T08:34:59.415Z,71.22
2023-03-21T08:35:59.433Z,68.00
2023-03-21T08:36:59.783Z,68.16
2023-03-21T08:37:59.410Z,69.77
2023-03-21T08:38:59.413Z,72.51
2023-03-21T08:39:59.449Z,70.09
2023-03-21T08:41:00.273Z,69.45
2023-03-21T08:42:00.402Z,66.87
2023-03-21T08:43:00.252Z,70.25
2023-03-21T08:43:59.377Z,67.68
2023-03-21T08:44:59.394Z,65.74
2023-03-21T08:45:59.430Z,74.28
2023-03-21T08:46:59.327Z,68.16
2023-03-21T08:47:59.329Z,67.51
2023-03-21T08:49:00.167Z,68.64
2023-03-21T08:49:59.362Z,70.58
2023-03-21T08:50:59.796Z,69.45
2023-03-21T08:51:59.286Z,73.64
2023-03-21T08:52:59.288Z,69.93
2023-03-21T08:53:59.261Z,69.61
2023-03-21T08:54:59.239Z,70.74
2023-03-21T08:55:59.290Z,69.29
2023-03-21T08:56:59.261Z,68.32
2023-03-21T08:57:59.225Z,71.70
2023-03-21T08:58:59.228Z,69.61
2023-03-21T08:59:59.247Z,68.96
2023-03-21T09:00:59.235Z,70.09
2023-03-21T09:01:59.249Z,68.64
2023-03-21T09:03:01.127Z,69.45
2023-03-21T09:03:59.200Z,69.29
2023-03-21T09:04:59.308Z,68.00
2023-03-21T09:05:59.187Z,72.99
2023-03-21T09:06:59.297Z,69.29
2023-03-21T09:07:59.167Z,68.00
2023-03-21T09:08:59.150Z,66.87
2023-03-21T09:10:19.097Z,67.35
2023-03-21T09:11:01.169Z,71.06
2023-03-21T09:11:59.112Z,66.55
2023-03-21T09:12:59.168Z,67.51
2023-03-21T09:13:59.094Z,67.51
2023-03-21T09:14:59.106Z,71.54
2023-03-21T09:15:59.155Z,67.19
2023-03-21T09:16:59.083Z,67.68
2023-03-21T09:17:59.060Z,67.03
2023-03-21T09:18:59.105Z,67.03
2023-03-21T09:19:59.107Z,72.51
2023-03-21T09:20:59.065Z,72.83
2023-03-21T09:21:59.062Z,72.83
2023-03-21T09:22:59.062Z,68.48
2023-03-21T09:23:59.026Z,70.58
2023-03-21T09:24:59.037Z,68.80
2023-03-21T09:25:59.051Z,70.09
2023-03-21T09:26:59.002Z,66.23
2023-03-21T09:27:59.022Z,69.77
2023-03-21T09:28:58.976Z,70.25
2023-03-21T09:29:58.993Z,70.58
2023-03-21T09:30:59.014Z,68.80
2023-03-21T09:31:58.967Z,65.90
2023-03-21T09:32:59.082Z,69.77
2023-03-21T09:33:59.543Z,68.32
2023-03-21T09:34:58.995Z,70.58
2023-03-21T09:35:59.761Z,72.19
2023-03-21T09:36:58.979Z,73.48
2023-03-21T09:37:59.720Z,70.09
2023-03-21T09:38:59.766Z,69.61
2023-03-21T09:39:58.927Z,68.32
2023-03-21T09:40:58.912Z,66.06
2023-03-21T09:41:58.899Z,66.39
2023-03-21T09:43:00.761Z,69.77
2023-03-21T09:43:59.643Z,69.13
2023-03-21T09:44:58.941Z,72.99
2023-03-21T09:45:58.855Z,73.80
2023-03-21T09:46:59.133Z,66.39
2023-03-21T09:47:59.852Z,66.87
2023-03-21T09:48:58.851Z,68.48
2023-03-21T09:50:07.553Z,70.25
2023-03-21T09:51:01.771Z,67.51
2023-03-21T09:51:58.809Z,66.71
2023-03-21T09:52:58.818Z,70.09
2023-03-21T09:54:00.642Z,69.77
2023-03-21T09:54:58.794Z,71.22
2023-03-21T09:55:58.779Z,72.35
2023-03-21T09:56:58.781Z,66.06
2023-03-21T09:57:58.791Z,70.25
2023-03-21T09:58:58.742Z,80.89
2023-03-21T09:59:58.724Z,67.84
2023-03-21T10:00:58.770Z,71.22
2023-03-21T10:01:58.726Z,68.48
2023-03-21T10:02:58.745Z,82.34
2023-03-21T10:03:58.717Z,72.83
2023-03-21T10:04:58.729Z,76.22
2023-03-21T10:05:58.803Z,69.61
2023-03-21T10:06:59.195Z,69.45
2023-03-21T10:07:58.672Z,73.15
2023-03-21T10:08:58.676Z,66.23
2023-03-21T10:10:03.200Z,66.23
2023-03-21T10:10:58.717Z,67.03
2023-03-21T10:11:58.636Z,66.55
2023-03-21T10:12:58.772Z,66.87
2023-03-21T10:13:58.616Z,67.19
2023-03-21T10:14:58.625Z,65.10
2023-03-21T10:15:58.763Z,69.77
2023-03-21T10:16:58.652Z,72.67
2023-03-21T10:17:58.602Z,67.68
2023-03-21T10:18:58.571Z,72.99
2023-03-21T10:19:58.559Z,70.42
2023-03-21T10:20:58.578Z,73.80
2023-03-21T10:22:01.652Z,68.64
2023-03-21T10:22:59.574Z,66.71
2023-03-21T10:23:59.280Z,68.00
2023-03-21T10:24:58.554Z,69.77
2023-03-21T10:25:58.609Z,67.35
2023-03-21T10:26:58.533Z,69.93
2023-03-21T10:27:59.219Z,69.77
2023-03-21T10:28:58.521Z,66.55
2023-03-21T10:29:58.498Z,68.48
2023-03-21T10:30:59.314Z,72.51
2023-03-21T10:31:58.569Z,67.51
2023-03-21T10:32:59.634Z,70.25
2023-03-21T10:33:59.465Z,71.22
2023-03-21T10:34:58.593Z,70.74
2023-03-21T10:35:58.471Z,73.15
2023-03-21T10:36:58.440Z,73.32
2023-03-21T10:37:58.443Z,69.77
2023-03-21T10:38:58.457Z,69.93
2023-03-21T10:39:58.429Z,69.13
2023-03-21T10:40:58.413Z,76.05
2023-03-21T10:41:58.423Z,72.35
2023-03-21T10:42:59.203Z,70.25
2023-03-21T10:43:58.372Z,68.96
2023-03-21T10:44:58.389Z,67.84
2023-03-21T10:45:58.477Z,66.55
2023-03-21T10:46:59.510Z,66.55
2023-03-21T10:47:58.648Z,68.80
2023-03-21T10:48:58.405Z,66.06
2023-03-21T10:50:07.646Z,72.67
2023-03-21T10:51:00.425Z,70.90
2023-03-21T10:51:58.467Z,66.39
2023-03-21T10:52:58.355Z,69.77
2023-03-21T10:53:58.335Z,68.32
2023-03-21T10:54:58.277Z,68.96
2023-03-21T10:55:59.288Z,70.90
2023-03-21T10:56:58.286Z,69.61
2023-03-21T10:57:58.260Z,70.25
2023-03-21T10:58:58.273Z,69.61
2023-03-21T10:59:58.253Z,67.84
2023-03-21T11:00:58.415Z,70.74
2023-03-21T11:01:58.297Z,68.80
2023-03-21T11:02:58.802Z,70.74
2023-03-21T11:03:58.222Z,68.96
2023-03-21T11:04:58.205Z,77.34
2023-03-21T11:05:58.204Z,70.58
2023-03-21T11:06:58.232Z,67.35
2023-03-21T11:07:58.323Z,67.84
2023-03-21T11:08:58.188Z,68.80
2023-03-21T11:09:58.207Z,65.58
2023-03-21T11:10:58.184Z,66.39
2023-03-21T11:11:58.156Z,68.00
2023-03-21T11:12:58.150Z,65.58
2023-03-21T11:13:58.720Z,68.00
2023-03-21T11:14:58.149Z,67.35
2023-03-21T11:15:58.120Z,70.25
2023-03-21T11:16:58.170Z,68.64
2023-03-21T11:17:58.101Z,68.16
2023-03-21T11:18:58.101Z,75.41
2023-03-21T11:19:58.272Z,71.54
2023-03-21T11:20:58.093Z,73.32
2023-03-21T11:21:58.329Z,72.35
2023-03-21T11:22:58.104Z,68.48
2023-03-21T11:23:58.106Z,71.38
2023-03-21T11:24:58.050Z,65.74
2023-03-21T11:25:58.063Z,69.61
2023-03-21T11:26:58.049Z,73.80
2023-03-21T11:27:58.050Z,72.03
2023-03-21T11:28:58.858Z,67.68
2023-03-21T11:29:58.095Z,69.29
2023-03-21T11:30:58.050Z,69.29
2023-03-21T11:31:58.044Z,67.35
2023-03-21T11:32:58.015Z,68.48
2023-03-21T11:33:57.992Z,68.00
2023-03-21T11:34:57.990Z,71.54
2023-03-21T11:35:58.037Z,73.15
2023-03-21T11:36:57.989Z,70.58
2023-03-21T11:37:58.700Z,70.90
2023-03-21T11:38:57.951Z,70.58
2023-03-21T11:39:57.934Z,69.13
2023-03-21T11:40:57.945Z,69.61
2023-03-21T11:41:57.933Z,65.58
2023-03-21T11:42:57.977Z,75.41
2023-03-21T11:43:57.920Z,69.61
2023-03-21T11:44:57.945Z,65.58
2023-03-21T11:45:58.088Z,70.74
2023-03-21T11:46:57.890Z,71.87
2023-03-21T11:47:57.963Z,66.39
2023-03-21T11:48:58.039Z,68.00
2023-03-21T11:50:04.532Z,74.12
2023-03-21T11:50:59.960Z,68.00
2023-03-21T11:53:47.640Z,68.48
2023-03-21T11:54:46.881Z,72.67
2023-03-21T11:55:46.855Z,72.03
2023-03-21T11:56:47.229Z,68.00
2023-03-21T11:57:46.836Z,74.28
2023-03-21T11:58:46.935Z,71.54
2023-03-21T11:59:46.866Z,68.48
2023-03-21T12:00:46.878Z,67.84
2023-03-21T12:01:46.796Z,68.00
2023-03-21T12:02:46.849Z,70.42
2023-03-21T12:05:53.040Z,70.25
2023-03-21T12:06:54.023Z,77.18
2023-03-21T12:07:54.141Z,69.45
2023-03-21T12:08:54.125Z,70.09
2023-03-21T12:09:54.969Z,71.06
2023-03-21T12:10:54.141Z,72.35
2023-03-21T12:11:55.029Z,68.32
2023-03-21T12:12:54.098Z,67.84
2023-03-21T12:13:54.145Z,70.90
2023-03-21T12:14:54.142Z,68.00
2023-03-21T12:15:55.459Z,67.68
2023-03-21T12:16:55.067Z,72.35
2023-03-21T12:17:56.110Z,71.70
2023-03-21T12:18:56.011Z,73.32
2023-03-21T12:19:55.173Z,70.09
2023-03-21T12:20:54.485Z,72.35
2023-03-21T12:21:55.030Z,72.99
2023-03-21T12:22:55.023Z,69.13
2023-03-21T12:23:54.015Z,71.38
2023-03-21T12:24:53.995Z,66.87
2023-03-21T12:25:56.860Z,81.05
2023-03-21T12:26:54.012Z,65.58
2023-03-21T12:27:55.419Z,68.16
2023-03-21T12:28:54.015Z,68.48
2023-03-21T12:29:54.043Z,67.68
2023-03-21T12:30:54.018Z,68.80
2023-03-21T12:31:54.063Z,66.23
2023-03-21T12:32:54.049Z,69.13
2023-03-21T12:33:54.015Z,67.19
2023-03-21T12:34:53.966Z,70.25
2023-03-21T12:35:54.909Z,69.45
2023-03-21T12:36:53.899Z,64.13
2023-03-21T12:37:55.535Z,69.13
2023-03-21T12:38:53.878Z,70.90
2023-03-21T12:39:53.875Z,67.84
2023-03-21T12:40:53.858Z,68.96
2023-03-21T12:41:53.883Z,69.77
2023-03-21T12:42:53.864Z,70.74
2023-03-21T12:43:55.355Z,75.73
2023-03-21T12:44:54.826Z,67.03
2023-03-21T12:45:55.423Z,70.90
2023-03-21T12:46:53.917Z,69.13
2023-03-21T12:47:53.824Z,69.61
2023-03-21T12:48:54.604Z,73.80
2023-03-21T12:49:55.253Z,70.25
2023-03-21T12:50:54.847Z,66.71
2023-03-21T12:51:53.818Z,71.06
2023-03-21T12:52:54.408Z,68.80
2023-03-21T12:53:53.765Z,70.74
2023-03-21T12:54:53.779Z,69.29
2023-03-21T12:55:54.025Z,69.13
2023-03-21T12:56:53.722Z,70.90
2023-03-21T12:57:57.392Z,69.29
2023-03-21T12:58:54.706Z,97.00